Map

Track Data

SID SEASON NUMBER BASIN SUBBASIN NAME ISO_TIME NATURE LAT LON WMO_WIND WMO_PRES WMO_AGENCY TRACK_TYPE DIST2LAND LANDFALL IFLAG USA_AGENCY USA_ATCF_ID USA_LAT USA_LON USA_RECORD USA_STATUS USA_WIND USA_PRES USA_SSHS USA_R34_NE USA_R34_SE USA_R34_SW USA_R34_NW USA_R50_NE USA_R50_SE USA_R50_SW USA_R50_NW USA_R64_NE USA_R64_SE USA_R64_SW USA_R64_NW USA_POCI USA_ROCI USA_RMW USA_EYE TOKYO_LAT TOKYO_LON TOKYO_GRADE TOKYO_WIND TOKYO_PRES TOKYO_R50_DIR TOKYO_R50_LONG TOKYO_R50_SHORT TOKYO_R30_DIR TOKYO_R30_LONG TOKYO_R30_SHORT TOKYO_LAND CMA_LAT CMA_LON CMA_CAT CMA_WIND CMA_PRES HKO_LAT HKO_LON HKO_CAT HKO_WIND HKO_PRES NEWDELHI_LAT NEWDELHI_LON NEWDELHI_GRADE NEWDELHI_WIND NEWDELHI_PRES NEWDELHI_CI NEWDELHI_DP NEWDELHI_POCI REUNION_LAT REUNION_LON REUNION_TYPE REUNION_WIND REUNION_PRES REUNION_TNUM REUNION_CI REUNION_RMW REUNION_R34_NE REUNION_R34_SE REUNION_R34_SW REUNION_R34_NW REUNION_R50_NE REUNION_R50_SE REUNION_R50_SW REUNION_R50_NW REUNION_R64_NE REUNION_R64_SE REUNION_R64_SW REUNION_R64_NW BOM_LAT BOM_LON BOM_TYPE BOM_WIND BOM_PRES BOM_TNUM BOM_CI BOM_RMW BOM_R34_NE BOM_R34_SE BOM_R34_SW BOM_R34_NW BOM_R50_NE BOM_R50_SE BOM_R50_SW BOM_R50_NW BOM_R64_NE BOM_R64_SE BOM_R64_SW BOM_R64_NW BOM_ROCI BOM_POCI BOM_EYE BOM_POS_METHOD BOM_PRES_METHOD NADI_LAT NADI_LON NADI_CAT NADI_WIND NADI_PRES WELLINGTON_LAT WELLINGTON_LON WELLINGTON_WIND WELLINGTON_PRES DS824_LAT DS824_LON DS824_STAGE DS824_WIND DS824_PRES TD9636_LAT TD9636_LON TD9636_STAGE TD9636_WIND TD9636_PRES TD9635_LAT TD9635_LON TD9635_WIND TD9635_PRES TD9635_ROCI NEUMANN_LAT NEUMANN_LON NEUMANN_CLASS NEUMANN_WIND NEUMANN_PRES MLC_LAT MLC_LON MLC_CLASS MLC_WIND MLC_PRES USA_GUST BOM_GUST BOM_GUST_PER REUNION_GUST REUNION_GUST_PER USA_SEAHGT USA_SEARAD_NE USA_SEARAD_SE USA_SEARAD_SW USA_SEARAD_NW STORM_SPEED STORM_DIR
1990005S13112 1990 1 SI WA ROSITA 1990-01-04 18:00:00 NR -12.7000 111.700 25 1004 bom main 481 481 ______O_______ -1 -12.7000 111.700 20 25 1004 1.50000 3 6 12 265
1990005S13112 1990 1 SI WA ROSITA 1990-01-04 21:00:00 NR -12.7505 111.108 main 497 497 ______P_______ -1 -12.7505 111.108 20 25 1004 11 265
1990005S13112 1990 1 SI WA ROSITA 1990-01-05 00:00:00 TS -12.8000 110.600 25 1004 bom main 507 507 ______O_____O_ -1 -12.8000 110.600 20 25 1004 1.50000 161 3 6 -12.8000 110.600 TC 20 1004 9 263
1990005S13112 1990 1 SI WA ROSITA 1990-01-05 03:00:00 TS -12.8506 110.225 main 526 526 ______P_____P_ -1 -12.8496 110.215 20 25 1003 161 -12.8525 110.245 TC 22 1003 8 263
1990005S13112 1990 1 SI WA ROSITA 1990-01-05 06:00:00 TS -12.9000 109.800 25 1002 bom main 535 535 ______O_____O_ -1 -12.9000 109.800 20 25 1002 1.50000 161 3 6 -12.9000 109.800 TC 25 1002 10 265
1990005S13112 1990 1 SI WA ROSITA 1990-01-05 09:00:00 TS -12.9425 109.202 main 551 551 ______P_____P_ -1 -12.9425 109.202 20 25 1001 215 -12.9425 109.202 TC 25 1001 13 265
1990005S13112 1990 1 SI WA ROSITA 1990-01-05 12:00:00 TS -13.0000 108.500 25 1001 bom main 582 582 ______O_____O_ -1 -13.0000 108.500 20 25 1001 2.00000 269 3 6 -13.0000 108.500 TC 25 1001 14 264
1990005S13112 1990 1 SI WA ROSITA 1990-01-05 15:00:00 TS -13.0925 107.750 main 597 597 ______P_____P_ -1 -13.0925 107.750 20 25 1001 282 -13.0925 107.750 TC 25 1001 15 262
1990005S13112 1990 1 SI WA ROSITA 1990-01-05 18:00:00 TS -13.2000 107.000 25 1001 bom main 622 622 ______V_____O_ -1 -13.2000 107.000 20 25 1001 2.00000 296 3 6 -13.2000 107.000 TC 25 1001 14 262
1990005S13112 1990 1 SI WA ROSITA 1990-01-05 21:00:00 TS -13.2847 106.335 main 648 648 ______P_____P_ -1 -13.2847 106.335 20 27 1000 309 -13.2847 106.335 TC 27 1000 13 261
1990005S13112 1990 1 SI WA ROSITA 1990-01-06 00:00:00 TS -13.4000 105.700 30 1000 bom main 676 676 ______O_____O_ -1 -13.4000 105.700 20 30 1000 2.50000 323 3 6 -13.4000 105.700 TC 30 1000 14 257
1990005S13112 1990 1 SI WA ROSITA 1990-01-06 03:00:00 TS -13.6003 104.968 main 711 711 ______P_____P_ -1 -13.6003 104.968 20 30 999 307 -13.6003 104.968 TC 32 999 13 252
1990005S13112 1990 1 SI WA ROSITA 1990-01-06 06:00:00 TS -13.8000 104.400 30 998 bom main 749 749 ______O_____O_ -1 -13.8000 104.400 20 30 998 2.50000 292 3 6 -13.8000 104.400 TC 35 998 8 247
1990005S13112 1990 1 SI WA ROSITA 1990-01-06 09:00:00 TS -13.9072 104.232 main 766 766 ______P_____P_ -1 -13.9072 104.232 20 30 999 319 -13.9072 104.232 TC 32 999 3 224
1990005S13112 1990 1 SI WA ROSITA 1990-01-06 12:00:00 TS -14.0000 104.200 30 1000 bom main 777 777 ______O_____O_ -1 -14.0000 104.200 20 30 1000 2.50000 346 3 6 -14.0000 104.200 TC 30 1000 3 223
1990005S13112 1990 1 SI WA ROSITA 1990-01-06 15:00:00 TS -14.1425 104.000 main 794 794 ______P_____P_ -1 -14.1425 104.000 20 30 1000 319 -14.1425 104.000 TC 30 1000 5 232
1990005S13112 1990 1 SI WA ROSITA 1990-01-06 18:00:00 TS -14.3000 103.800 30 1000 bom main 823 823 ______V_____O_ -1 -14.3000 103.800 20 30 1000 2.50000 292 3 6 -14.3000 103.800 TC 30 1000 4 226
1990005S13112 1990 1 SI WA ROSITA 1990-01-06 21:00:00 TS -14.4425 103.685 main 837 837 ______P_____P_ -1 -14.4425 103.685 20 27 1000 265 -14.4425 103.685 TC 30 1000 4 213
1990005S13112 1990 1 SI WA ROSITA 1990-01-07 00:00:00 TS -14.6000 103.600 25 1000 bom main 862 862 ______O_____O_ -1 -14.6000 103.600 20 25 1000 2.00000 238 3 6 -14.6000 103.600 TC 30 1000 4 210
1990005S13112 1990 1 SI WA ROSITA 1990-01-07 03:00:00 TS -14.8075 103.470 main 887 887 ______P_____P_ -1 -14.8075 103.470 20 25 1000 253 -14.8075 103.470 TC 30 1000 4 206
1990005S13112 1990 1 SI WA ROSITA 1990-01-07 06:00:00 TS -15.0000 103.400 25 1000 bom main 911 911 ______O_____O_ -1 -15.0000 103.400 20 25 1000 2.00000 269 3 6 -15.0000 103.400 TC 30 1000 3 0
1990005S13112 1990 1 SI WA ROSITA 1990-01-07 09:00:00 TS -15.1300 103.470 main 918 918 ______P_____P_ -1 -15.1300 103.470 20 25 1000 242 -15.1300 103.470 TC 27 1000 3 136
1990005S13112 1990 1 SI WA ROSITA 1990-01-07 12:00:00 TS -15.2000 103.600 25 1001 bom main 925 921 ______O_____O_ -1 -15.2000 103.600 20 25 1001 2.00000 215 3 6 -15.2000 103.600 TC 25 1001 2 114
1990005S13112 1990 1 SI WA ROSITA 1990-01-07 15:00:00 TS -15.2225 103.685 main 921 918 ______P_____P_ -1 -15.2225 103.685 20 25 1001 215 -15.2225 103.685 TC 25 1001 2 90
1990005S13112 1990 1 SI WA ROSITA 1990-01-07 18:00:00 TS -15.2000 103.800 25 1001 bom main 918 911 ______O_____O_ -1 -15.2000 103.800 20 25 1001 2.00000 215 3 6 -15.2000 103.800 TC 25 1001 3 80
1990005S13112 1990 1 SI WA ROSITA 1990-01-07 21:00:00 TS -15.1651 104.008 main 911 895 ______P_____P_ -1 -15.1651 104.008 20 25 1001 231 -15.1651 104.008 TC 25 1001 4 75
1990005S13112 1990 1 SI WA ROSITA 1990-01-08 00:00:00 TS -15.1000 104.200 25 1002 bom main 895 881 ______O_____O_ -1 -15.1000 104.200 20 25 1002 1.50000 247 3 6 -15.1000 104.200 TC 25 1002 3 63
1990005S13112 1990 1 SI WA ROSITA 1990-01-08 03:00:00 TS -15.0300 104.280 main 881 870 ______P_____P_ -1 -15.0300 104.280 20 25 1002 215 -15.0300 104.280 TC 25 1002 2 27
1990005S13112 1990 1 SI WA ROSITA 1990-01-08 06:00:00 TS -14.9000 104.300 25 1002 bom main 870 849 ______O_____O_ -1 -14.9000 104.300 20 25 1002 1.50000 184 3 6 -14.9000 104.300 TC 25 1002 4 6
1990005S13112 1990 1 SI WA ROSITA 1990-01-08 09:00:00 TS -14.6650 104.315 main 849 816 ______P_____P_ -1 -14.6650 104.315 20 25 1002 215 -14.6650 104.315 TC 25 1002 5 2
1990005S13112 1990 1 SI WA ROSITA 1990-01-08 12:00:00 TS -14.4000 104.300 25 1002 bom main 816 795 ______O_____O_ -1 -14.4000 104.300 20 25 1002 1.50000 247 3 6 -14.4000 104.300 TC 25 1002 5 353
1990005S13112 1990 1 SI WA ROSITA 1990-01-08 15:00:00 TS -14.2000 104.257 main 795 777 ______P_____P_ -1 -14.2000 104.257 20 25 1002 -14.2000 104.257 TC 25 1002 4 347
1990005S13112 1990 1 SI WA ROSITA 1990-01-08 18:00:00 TS -14.0000 104.200 25 1002 bom main 777 756 ______O_____O_ -1 -14.0000 104.200 20 25 1002 1.50000 3 6 -14.0000 104.200 TC 25 1002 5 349
1990005S13112 1990 1 SI WA ROSITA 1990-01-08 21:00:00 TS -13.7425 104.165 main 745 728 ______P_____P_ -1 -13.7425 104.165 20 25 1002 -13.7425 104.165 TC 25 1002 5 349
1990005S13112 1990 1 SI WA ROSITA 1990-01-09 00:00:00 TS -13.5000 104.100 25 1003 bom main 728 717 ______O_____O_ -1 -13.5000 104.100 20 25 1003 1.50000 3 6 -13.5000 104.100 TC 25 1003 4 335
1990005S13112 1990 1 SI WA ROSITA 1990-01-09 03:00:00 TS -13.3800 103.988 main 721 709 ______P_____P_ -1 -13.3800 103.988 20 25 1003 -13.3800 103.988 TC 22 1003 4 316
1990005S13112 1990 1 SI WA ROSITA 1990-01-09 06:00:00 TS -13.2000 103.800 25 1004 bom main 709 678 ______O_____O_ -1 -13.2000 103.800 20 25 1004 1.50000 3 6 -13.2000 103.800 TC 20 1004 8 323
1990005S13112 1990 1 SI WA ROSITA 1990-01-09 09:00:00 TS -12.7800 103.522 main 683 651 ______P_____P_ -1 -12.7800 103.522 20 25 1004 -12.7800 103.522 TC 20 1004 11 327
1990005S13112 1990 1 SI WA ROSITA 1990-01-09 12:00:00 TS -12.3000 103.200 25 1004 bom main 651 630 ______O_____O_ -1 -12.3000 103.200 20 25 1004 1.50000 3 6 -12.3000 103.200 TC 20 1004 10 324
1990005S13112 1990 1 SI WA ROSITA 1990-01-09 15:00:00 TS -11.9425 102.900 main 624 608 ______P_____P_ -1 -11.9425 102.900 20 25 1003 -11.9425 102.900 TC 22 1003 9 320
1990005S13112 1990 1 SI WA ROSITA 1990-01-09 18:00:00 TS -11.6000 102.600 25 1003 bom main 608 586 ______O_____O_ -1 -11.6000 102.600 20 25 1003 1.50000 3 6 -11.6000 102.600 TC 25 1003 9 322
1990005S13112 1990 1 SI WA ROSITA 1990-01-09 21:00:00 TS -11.2074 102.308 main 586 569 ______P_____P_ -1 -11.2074 102.308 20 25 1002 -11.2074 102.308 TC 25 1002 10 324
1990005S13112 1990 1 SI WA ROSITA 1990-01-10 00:00:00 TS -10.8000 102.000 25 1002 bom main 569 557 ______O_____O_ -1 -10.8000 102.000 20 25 1002 1.50000 3 6 -10.8000 102.000 TC 25 1002 11 324
1990005S13112 1990 1 SI WA ROSITA 1990-01-10 03:00:00 TS -10.3549 101.672 main 557 549 ______P_____P_ -1 -10.3549 101.672 20 25 1001 -10.3549 101.672 TC 27 1001 11 319
1990005S13112 1990 1 SI WA ROSITA 1990-01-10 06:00:00 TS -10.0000 101.300 25 1000 bom main 559 559 ______O_____O_ -1 -10.0000 101.300 20 25 1000 2.00000 3 6 -10.0000 101.300 TC 30 1000 10 302
1990005S13112 1990 1 SI WA ROSITA 1990-01-10 09:00:00 TS -9.82515 100.813 main 589 589 ______P_____P_ -1 -9.82515 100.813 20 25 1000 -9.82515 100.813 TC 30 1000 9 283
1990005S13112 1990 1 SI WA ROSITA 1990-01-10 12:00:00 TS -9.80000 100.400 25 1000 bom main 626 626 ______O_____O_ -1 -9.80000 100.400 20 25 1000 2.00000 238 3 6 -9.80000 100.400 TC 30 1000 6 266
1990005S13112 1990 1 SI WA ROSITA 1990-01-10 15:00:00 TS -9.86240 100.240 main 650 650 ______P_____P_ -1 -9.86240 100.240 20 25 1000 275 -9.86240 100.240 TC 30 1000 3 225
1990005S13112 1990 1 SI WA ROSITA 1990-01-10 18:00:00 TS -10.0000 100.200 25 1000 bom main 656 656 ______V_____O_ -1 -10.0000 100.200 20 25 1000 2.00000 313 3 6 -10.0000 100.200 TC 30 1000 3 200
1990005S13112 1990 1 SI WA ROSITA 1990-01-10 21:00:00 TS -10.1500 100.135 main 672 672 ______P_____P_ -1 -10.1500 100.135 20 25 1000 350 -10.1500 100.135 TC 30 1000 3 197
1990005S13112 1990 1 SI WA ROSITA 1990-01-11 00:00:00 TS -10.3000 100.100 25 1000 bom main 684 684 ______O_____O_ -1 -10.3000 100.100 20 25 1000 2.00000 388 3 6 -10.3000 100.100 TC 30 1000 3 189
1990005S13112 1990 1 SI WA ROSITA 1990-01-11 03:00:00 TS -10.4000 100.092 main 691 691 ______P_____P_ -1 -10.4000 100.092 20 25 1000 442 -10.4000 100.092 TC 30 1000 2 172
1990005S13112 1990 1 SI WA ROSITA 1990-01-11 06:00:00 TS -10.5000 100.100 25 1000 bom main 697 697 ______O_____O_ -1 -10.5000 100.100 20 25 1000 2.00000 496 3 6 -10.5000 100.100 TC 30 1000 3 182
1990005S13112 1990 1 SI WA ROSITA 1990-01-11 09:00:00 TS -10.6500 100.085 main 704 704 ______P_____P_ -1 -10.6500 100.085 20 25 1000 502 -10.6500 100.085 TC 30 1000 3 0
1990005S13112 1990 1 SI WA ROSITA 1990-01-11 12:00:00 TS -10.8000 100.100 25 1000 bom main 717 716 ______O_____O_ -1 -10.8000 100.100 20 25 1000 2.00000 508 3 6 -10.8000 100.100 TC 30 1000 3 161
1990005S13112 1990 1 SI WA ROSITA 1990-01-11 15:00:00 TS -10.9150 100.177 main 716 715 ______P_____P_ -1 -10.9150 100.177 20 25 1000 467 -10.9150 100.177 TC 30 1000 3 135
1990005S13112 1990 1 SI WA ROSITA 1990-01-11 18:00:00 TS -11.0000 100.300 25 1000 bom main 715 706 ______V_____O_ -1 -11.0000 100.300 20 25 1000 2.00000 427 3 6 -11.0000 100.300 TC 30 1000 3 119
1990005S13112 1990 1 SI WA ROSITA 1990-01-11 21:00:00 TS -11.0500 100.428 main 706 698 ______P_____P_ -1 -11.0500 100.428 20 25 1000 386 -11.0500 100.428 TC 30 1000 3 109
1990005S13112 1990 1 SI WA ROSITA 1990-01-12 00:00:00 TS -11.1000 100.600 25 1000 bom main 698 682 ______O_____O_ -1 -11.1000 100.600 20 25 1000 2.00000 346 3 6 -11.1000 100.600 TC 30 1000 4 106
1990005S13112 1990 1 SI WA ROSITA 1990-01-12 03:00:00 TS -11.1700 100.850 main 682 675 ______P_____P_ -1 -11.1700 100.850 20 27 999 383 -11.1700 100.850 TC 32 999 5 112
1990005S13112 1990 1 SI WA ROSITA 1990-01-12 06:00:00 TS -11.3000 101.100 30 998 bom main 676 676 ______O_____O_ -1 -11.3000 101.100 20 30 998 2.50000 421 3 6 -11.3000 101.100 TC 35 998 5 131
1990005S13112 1990 1 SI WA ROSITA 1990-01-12 09:00:00 TS -11.5275 101.265 main 678 678 ______P_____P_ -1 -11.5275 101.265 20 30 998 340 -11.5275 101.265 TC 35 998 6 150
1990005S13112 1990 1 SI WA ROSITA 1990-01-12 12:00:00 TS -11.8000 101.400 30 998 bom main 698 698 ______O_____O_ -1 -11.8000 101.400 20 30 998 2.50000 259 3 6 -11.8000 101.400 TC 35 998 6 151
1990005S13112 1990 1 SI WA ROSITA 1990-01-12 15:00:00 TS -12.0425 101.558 main 703 703 ______P_____P_ -1 -12.0425 101.558 20 32 997 237 -12.0425 101.558 TC 35 997 6 150
1990005S13112 1990 1 SI WA ROSITA 1990-01-12 18:00:00 TS -12.3000 101.700 35 997 bom main 725 725 ______V_____O_ -1 -12.3000 101.700 30 35 997 3.00000 215 3 6 -12.3000 101.700 TC 35 997 6 156
1990005S13112 1990 1 SI WA ROSITA 1990-01-12 21:00:00 TS -12.6000 101.811 main 749 749 ______P_____P_ -1 -12.6000 101.808 30 37 996 193 -12.6000 101.815 TC 37 996 6 162
1990005S13112 1990 1 SI WA ROSITA 1990-01-13 00:00:00 TS -12.9000 101.900 40 995 bom main 773 773 ______O_____O_ -1 -12.9000 101.900 30 40 995 3.00000 172 3 6 -12.9000 101.900 TC 40 995 6 163
1990005S13112 1990 1 SI WA ROSITA 1990-01-13 03:00:00 TS -13.1575 101.979 main 797 797 ______P_____P_ -1 -13.1575 102.008 30 40 993 196 -13.1575 101.950 TC 42 993 5 163
1990005S13112 1990 1 SI WA ROSITA 1990-01-13 06:00:00 TS -13.4000 102.050 40 992 bom main 813 813 ______V_____O_ -1 -13.4000 102.100 30 40 992 3.00000 220 3 6 -13.4000 102.000 TC 45 992 5 163
1990005S13112 1990 1 SI WA ROSITA 1990-01-13 09:00:00 TS -13.6500 102.129 main 833 839 ______P_____P_ -1 -13.6500 102.158 30 42 991 244 -13.6500 102.100 TC 45 991 5 163
1990005S13112 1990 1 SI WA ROSITA 1990-01-13 12:00:00 TS -13.9000 102.200 45 990 bom main 860 860 ______O_____O_ -1 -13.9000 102.200 30 45 990 3.00000 269 3 6 -13.9000 102.200 TC 45 990 5 167
1990005S13112 1990 1 SI WA ROSITA 1990-01-13 15:00:00 TS -14.1500 102.246 main 879 879 ______P_____P_ -1 -14.1500 102.243 30 45 989 261 -14.1500 102.250 TC 47 989 5 169
1990005S13112 1990 1 SI WA ROSITA 1990-01-13 18:00:00 TS -14.4000 102.300 45 988 bom main 902 902 ______V_____O_ -1 -14.4000 102.300 30 45 988 3.00000 253 3 6 -14.4000 102.300 TC 50 988 5 163
1990005S13112 1990 1 SI WA ROSITA 1990-01-13 21:00:00 TS -14.6500 102.400 main 926 926 ______P_____P_ -1 -14.6500 102.400 30 45 988 245 -14.6500 102.400 TC 50 988 5 159
1990005S13112 1990 1 SI WA ROSITA 1990-01-14 00:00:00 TS -14.9000 102.500 45 988 bom main 941 941 ______O_____O_ -1 -14.9000 102.500 30 45 988 3.00000 238 3 6 -14.9000 102.500 TC 50 988 5 162
1990005S13112 1990 1 SI WA ROSITA 1990-01-14 03:00:00 TS -15.1575 102.565 main 966 966 ______P_____P_ -1 -15.1575 102.565 30 42 989 232 -15.1575 102.565 TC 47 989 5 169
1990005S13112 1990 1 SI WA ROSITA 1990-01-14 06:00:00 TS -15.4000 102.600 40 990 bom main 987 987 ______O_____O_ -1 -15.4000 102.600 30 40 990 3.00000 226 3 6 -15.4000 102.600 TC 45 990 4 175
1990005S13112 1990 1 SI WA ROSITA 1990-01-14 09:00:00 TS -15.5925 102.608 main 1007 1007 ______P_____P_ -1 -15.5925 102.608 30 40 990 220 -15.5925 102.608 TC 45 990 4 0
1990005S13112 1990 1 SI WA ROSITA 1990-01-14 12:00:00 TS -15.8000 102.600 40 990 bom main 1027 1027 ______O_____O_ -1 -15.8000 102.600 30 40 990 3.00000 215 3 6 -15.8000 102.600 TC 45 990 5 177
1990005S13112 1990 1 SI WA ROSITA 1990-01-14 15:00:00 TS -16.1150 102.637 main 1058 1058 ______P_____P_ -1 -16.1150 102.637 30 40 992 185 -16.1150 102.637 TC 42 992 6 179
1990005S13112 1990 1 SI WA ROSITA 1990-01-14 18:00:00 TS -16.4000 102.600 40 994 bom main 1089 1089 ______V_____O_ -1 -16.4000 102.600 30 40 994 3.00000 156 3 6 -16.4000 102.600 TC 40 994 5 208
1990005S13112 1990 1 SI WA ROSITA 1990-01-14 21:00:00 TS -16.5676 102.388 main 1118 1118 ______P_____P_ -1 -16.5676 102.388 30 37 995 126 -16.5676 102.388 TC 37 995 5 247
1990005S13112 1990 1 SI WA ROSITA 1990-01-15 00:00:00 TS -16.6000 102.100 35 996 bom main 1131 1130 ______O_____O_ -1 -16.6000 102.100 30 35 996 3.00000 97 3 6 -16.6000 102.100 TC 35 996 5 279
1990005S13112 1990 1 SI WA ROSITA 1990-01-15 03:00:00 TS -16.4875 101.850 main 1135 1120 ______P_____P_ -1 -16.4875 101.850 30 32 996 80 -16.4875 101.850 TC 35 996 6 302
1990005S13112 1990 1 SI WA ROSITA 1990-01-15 06:00:00 TS -16.3000 101.600 30 997 bom main 1125 1120 ______O_____O_ -1 -16.3000 101.600 20 30 997 2.50000 64 3 6 -16.3000 101.600 TC 35 997 6 305
1990005S13112 1990 1 SI WA ROSITA 1990-01-15 09:00:00 TS -16.1574 101.358 main 1125 1117 ______P_____P_ -1 -16.1574 101.358 20 30 997 91 -16.1574 101.358 TC 35 997 6 302
1990005S13112 1990 1 SI WA ROSITA 1990-01-15 12:00:00 TS -16.0000 101.100 30 998 bom main 1122 1111 ______O_____O_ -1 -16.0000 101.100 20 30 998 2.50000 118 3 6 -16.0000 101.100 TC 35 998 6 303
1990005S13112 1990 1 SI WA ROSITA 1990-01-15 15:00:00 TS -15.8075 100.800 main 1116 1105 ______P_____P_ -1 -15.8075 100.800 20 30 998 -15.8075 100.800 TC 32 998 7 305
1990005S13112 1990 1 SI WA ROSITA 1990-01-15 18:00:00 TS -15.6000 100.500 30 999 bom main 1110 1106 ______O_____O_ -1 -15.6000 100.500 20 30 999 2.50000 3 6 -15.6000 100.500 TC 30 999 7 305
1990005S13112 1990 1 SI WA ROSITA 1990-01-15 21:00:00 TS -15.4300 100.235 main 1106 1098 ______P_____P_ -1 -15.4300 100.235 20 27 999 -15.4300 100.235 TC 30 999 6 310
1990005S13112 1990 1 SI WA ROSITA 1990-01-16 00:00:00 TS -15.2000 100.000 25 1000 bom main 1098 1072 ______O_____O_ -1 -15.2000 100.000 20 25 1000 2.00000 3 6 -15.2000 100.000 TC 30 1000 8 325
1990005S13112 1990 1 SI WA ROSITA 1990-01-16 03:00:00 TS -14.8150 99.7925 main 1072 1048 ______P_____P_ -1 -14.8150 99.7925 20 25 1000 -14.8150 99.7925 TC 30 1000 9 334
1990005S13112 1990 1 SI WA ROSITA 1990-01-16 06:00:00 TS -14.4000 99.6000 25 1000 bom main 1048 1034 ______O_____O_ -1 -14.4000 99.6000 20 25 1000 2.00000 3 6 -14.4000 99.6000 TC 30 1000 8 333
1990005S13112 1990 1 SI WA ROSITA 1990-01-16 09:00:00 TS -14.0850 99.4001 main 1034 1022 ______P_____P_ -1 -14.0850 99.4001 20 25 1000 -14.0850 99.4001 TC 30 1000 7 327
1990005S13112 1990 1 SI WA ROSITA 1990-01-16 12:00:00 TS -13.8000 99.2000 25 1000 bom main 1022 1011 ______O_____O_ -1 -13.8000 99.2000 20 25 1000 2.00000 3 6 -13.8000 99.2000 TC 30 1000 7 325
1990005S13112 1990 1 SI WA ROSITA 1990-01-16 15:00:00 TS -13.5000 98.9850 main 1011 1002 ______P_____P_ -1 -13.5000 98.9850 20 25 1000 -13.5000 98.9850 TC 30 1000 7 327
1990005S13112 1990 1 SI WA ROSITA 1990-01-16 18:00:00 TS -13.2000 98.8000 25 1000 bom main 1002 987 ______O_____O_ -1 -13.2000 98.8000 20 25 1000 2.00000 3 6 -13.2000 98.8000 TC 30 1000 7 335
1990005S13112 1990 1 SI WA ROSITA 1990-01-16 21:00:00 TS -12.9000 98.6926 main 987 972 ______P_____P_ -1 -12.9000 98.6926 20 25 1000 -12.9000 98.6926 TC 30 1000 6 342
1990005S13112 1990 1 SI WA ROSITA 1990-01-17 00:00:00 TS -12.6000 98.6000 25 1000 bom main 972 959 ______O_____O_ -1 -12.6000 98.6000 20 25 1000 2.00000 3 6 -12.6000 98.6000 TC 30 1000 6 338
1990005S13112 1990 1 SI WA ROSITA 1990-01-17 03:00:00 TS -12.3150 98.4500 main 959 953 ______P_____P_ -1 -12.3150 98.4500 20 25 1000 -12.3150 98.4500 TC 27 1000 7 334
1990005S13112 1990 1 SI WA ROSITA 1990-01-17 06:00:00 TS -12.0000 98.3000 25 1001 bom main 955 938 ______O_____O_ -1 -12.0000 98.3000 20 25 1001 2.00000 3 6 -12.0000 98.3000 TC 25 1001 7 340
1990005S13112 1990 1 SI WA ROSITA 1990-01-17 09:00:00 TS -11.6200 98.1875 main 938 917 ______P_____P_ -1 -11.6200 98.1875 20 25 1001 -11.6200 98.1875 TC 25 1001 8 346
1990005S13112 1990 1 SI WA ROSITA 1990-01-17 12:00:00 TS -11.2000 98.1000 25 1002 bom main 917 ______O_____O_ -1 -11.2000 98.1000 20 25 1002 1.50000 3 6 -11.2000 98.1000 TC 25 1002 9 348

About IBTrACS Database

This database is a web-friendly format of International Best Track Archive for Climate Stewardship (IBTrACS), a global best track data archive curated by NOAA dating back to 1842.

Updated: 2021-10-08